Elizabeth Dewey — WDC6540 — position and weather

sailwx.info

Track history (hours):
 
Tides and Currents Weather Stations Pressure Air Temp Water Temp Dewpoint Dewpoint Depression Visibility Wind Speed Wind Dir Waves Ship Positions

Elizabeth Dewey

Owner: American Commercial Lines LLC, Jeffersonville, IN. More information available from US FCC via Universal Licensing System and Coast Guard Vessel Documentation Center.

Last reported at 2018-Feb-13 18:26 UTC. Time now 2018-Feb-20 23:13 UTC.
Position N 32°06' W 091°06'.

Length 48 m; draft 3.4 m.

Type: Towing. MMSI: 367057670.

Date/timePositionNaut miles runAvg speedWind from/ knotsBaromVisibWave heightAir tempDewpointWater temp
2018-Feb-13 18:26N 32°06' W 091°06'2 3.7
2018-Feb-13 18:00N 32°08' W 091°06'3 6.2
2018-Feb-13 17:28N 32°07' W 091°02'4 7.7
2018-Feb-13 17:01N 32°10' W 091°00'4 8.9
2018-Feb-13 16:31N 32°15' W 090°59'4 8.5
2018-Feb-13 16:01N 32°18' W 090°55'1 1.6
2018-Feb-13 15:30N 32°18' W 090°55'0 0.1
2018-Feb-13 15:01N 32°18' W 090°55'0 0.0
2018-Feb-13 14:31N 32°18' W 090°55'0 0.0
2018-Feb-13 14:00N 32°18' W 090°55'0 0.0
2018-Feb-13 13:30N 32°18' W 090°55'0 0.0
2018-Feb-13 13:00N 32°18' W 090°55'0 0.0
2018-Feb-13 12:31N 32°18' W 090°55'0 0.0
2018-Feb-13 12:01N 32°18' W 090°55'0 0.0
2018-Feb-13 11:31N 32°18' W 090°55'0 0.0
2018-Feb-13 11:01N 32°18' W 090°55'0 0.0
2018-Feb-13 10:31N 32°18' W 090°55'0 0.1
2018-Feb-13 10:01N 32°18' W 090°55'1 2.2
2018-Feb-13 09:31N 32°19' W 090°54'3 6.2
2018-Feb-13 09:00N 32°21' W 090°57'3 6.1
2018-Feb-13 08:30N 32°23' W 090°60'3 6.6
2018-Feb-13 08:00N 32°26' W 091°02'4 8.1
2018-Feb-13 07:31N 32°28' W 091°06'5 7.7
2018-Feb-13 06:48N 32°33' W 091°06'2 8.2
2018-Feb-13 06:31N 32°35' W 091°08'5 7.5
2018-Feb-13 05:51N 32°40' W 091°08'4 1.1
2018-Feb-13 02:02N 32°44' W 091°09'1 6.0
2018-Feb-13 01:55N 32°45' W 091°09'  
Track history (hours):
 
Tides and Currents Weather Stations Pressure Air Temp Water Temp Dewpoint Dewpoint Depression Visibility Wind Speed Wind Dir Waves Ship Positions

Elizabeth Dewey

Owner: American Commercial Lines LLC, Jeffersonville, IN. More information available from US FCC via Universal Licensing System and Coast Guard Vessel Documentation Center.

Last reported at 2018-Feb-13 18:26 UTC. Time now 2018-Feb-20 23:13 UTC.
Position N 32°06' W 091°06'.

Length 48 m; draft 3.4 m.

Type: Towing. MMSI: 367057670.

Date/timePositionNaut miles runAvg speedWind from/ knotsBaromVisibWave heightAir tempDewpointWater temp
2018-Feb-13 18:26N 32°06' W 091°06'2 3.7
2018-Feb-13 18:00N 32°08' W 091°06'3 6.2
2018-Feb-13 17:28N 32°07' W 091°02'4 7.7
2018-Feb-13 17:01N 32°10' W 091°00'4 8.9
2018-Feb-13 16:31N 32°15' W 090°59'4 8.5
2018-Feb-13 16:01N 32°18' W 090°55'1 1.6
2018-Feb-13 15:30N 32°18' W 090°55'0 0.1
2018-Feb-13 15:01N 32°18' W 090°55'0 0.0
2018-Feb-13 14:31N 32°18' W 090°55'0 0.0
2018-Feb-13 14:00N 32°18' W 090°55'0 0.0
2018-Feb-13 13:30N 32°18' W 090°55'0 0.0
2018-Feb-13 13:00N 32°18' W 090°55'0 0.0
2018-Feb-13 12:31N 32°18' W 090°55'0 0.0
2018-Feb-13 12:01N 32°18' W 090°55'0 0.0
2018-Feb-13 11:31N 32°18' W 090°55'0 0.0
2018-Feb-13 11:01N 32°18' W 090°55'0 0.0
2018-Feb-13 10:31N 32°18' W 090°55'0 0.1
2018-Feb-13 10:01N 32°18' W 090°55'1 2.2
2018-Feb-13 09:31N 32°19' W 090°54'3 6.2
2018-Feb-13 09:00N 32°21' W 090°57'3 6.1
2018-Feb-13 08:30N 32°23' W 090°60'3 6.6
2018-Feb-13 08:00N 32°26' W 091°02'4 8.1
2018-Feb-13 07:31N 32°28' W 091°06'5 7.7
2018-Feb-13 06:48N 32°33' W 091°06'2 8.2
2018-Feb-13 06:31N 32°35' W 091°08'5 7.5
2018-Feb-13 05:51N 32°40' W 091°08'4 1.1
2018-Feb-13 02:02N 32°44' W 091°09'1 6.0
2018-Feb-13 01:55N 32°45' W 091°09'  

Dump ship's entire track history